Glen Cove, Maine
Current Conditions -  °F | °C
As of 2:35 AM on Wednesday 22 Oct 2014 (Local Time) from KRKD Reporting Station
Overcast Overcast  
Wind Chill: 50°   Ceiling: 1000
Heat Index: 50°   Visibility: 10mi
Dew Point: 48°   Wind: 12mph
Humidity: 94%   Direction: 40°NE
Pressure: 30.09"   Gusts: 20mph
Location:  44.13°N, 69.09°W
Report Text: KRKD 220635Z AUTO 04010G17KT 10SM BKN010 OVC016 10/09 A3009 RMK AO1 P0002
Loading
Personal Weather Stations






























Interactive Weather Map
Tropical Storm Tracking
New forecast layout! Learn more

10-Day Weather Forecast

Advertisements
Track Severe Weather on mobile